Time;durP1;ratioP1;P1;durP2;ratioP2;P2;SDS_P1;SDS_P2;PMS_P1;PMS_P2;Temp;Humidity;BMP_temperature;BMP_pressure;BME280_temperature;BME280_humidity;BME280_pressure;Samples;Min_cycle;Max_cycle;Signal;HPM_P1;HPM_P2
2023/04/26 00:00:07;;;;;;;12.27;3.83;;;;;;;;;;5033258;28;20051;-75
2023/04/26 00:02:53;;;;;;;4.55;2.78;;;;;;;;;;5049918;28;20104;-71
2023/04/26 00:05:38;;;;;;;7.10;3.72;;;;;;;;;;5044884;28;20036;-81
2023/04/26 00:08:23;;;;;;;6.35;3.17;;;;;;;;;;5044023;28;20057;-82
2023/04/26 00:11:08;;;;;;;11.30;3.92;;;;;;;;;;5024478;28;20052;-80
2023/04/26 00:13:54;;;;;;;8.15;4.13;;;;;;;;;;5045467;28;20028;-79
2023/04/26 00:16:39;;;;;;;9.10;3.90;;;;;;;;;;5042150;28;20039;-80
2023/04/26 00:19:24;;;;;;;8.98;3.85;;;;;;;;;;5041695;28;20028;-70
2023/04/26 00:22:10;;;;;;;5.60;2.75;;;;;;;;;;5046212;28;20028;-72
2023/04/26 00:24:55;;;;;;;6.05;3.15;;;;;;;;;;5045772;28;20033;-73
2023/04/26 00:27:40;;;;;;;7.25;2.72;;;;;;;;;;5041981;28;20045;-71
2023/04/26 00:30:26;;;;;;;5.53;3.22;;;;;;;;;;5029079;28;20032;-74
2023/04/26 00:33:11;;;;;;;9.32;3.45;;;;;;;;;;5028512;28;20028;-73
2023/04/26 00:35:56;;;;;;;6.43;3.22;;;;;;;;;;5045171;28;20029;-73
2023/04/26 00:38:41;;;;;;;6.18;3.22;;;;;;;;;;5046277;28;20025;-82
2023/04/26 00:41:27;;;;;;;8.32;2.88;;;;;;;;;;5034132;28;20025;-72
2023/04/26 00:44:12;;;;;;;7.45;2.97;;;;;;;;;;5044854;28;21650;-72
2023/04/26 00:46:57;;;;;;;9.05;2.97;;;;;;;;;;5047195;28;20033;-72
2023/04/26 00:49:43;;;;;;;7.60;2.60;;;;;;;;;;5040447;28;20033;-75
2023/04/26 00:52:28;;;;;;;11.70;3.50;;;;;;;;;;5042048;28;20063;-72
2023/04/26 00:55:15;;;;;;;5.35;2.67;;;;;;;;;;5036809;28;20037;-72
2023/04/26 00:58:00;;;;;;;10.50;3.25;;;;;;;;;;5030156;28;20032;-79
2023/04/26 01:00:45;;;;;;;8.30;4.20;;;;;;;;;;5039497;28;20022;-74
2023/04/26 01:03:30;;;;;;;7.50;4.30;;;;;;;;;;5032319;28;20472;-73
2023/04/26 01:06:16;;;;;;;9.00;3.25;;;;;;;;;;5049064;28;20029;-74
2023/04/26 01:09:10;;;;;;;7.90;3.75;;;;;;;;;;5045011;28;20025;-73
2023/04/26 01:11:57;;;;;;;9.05;3.47;;;;;;;;;;5030515;28;20020;-73
2023/04/26 01:14:42;;;;;;;7.88;3.83;;;;;;;;;;5044051;28;20507;-82
2023/04/26 01:17:28;;;;;;;7.15;3.38;;;;;;;;;;5042327;28;20037;-76
2023/04/26 01:20:13;;;;;;;4.85;3.50;;;;;;;;;;5045056;28;20032;-72
2023/04/26 01:22:59;;;;;;;11.55;3.70;;;;;;;;;;5043617;28;20486;-75
2023/04/26 01:25:44;;;;;;;6.50;3.17;;;;;;;;;;5028745;28;20025;-74
2023/04/26 01:28:30;;;;;;;8.90;4.05;;;;;;;;;;5041445;28;20039;-75
2023/04/26 01:31:15;;;;;;;9.07;3.75;;;;;;;;;;5044765;28;20063;-74
2023/04/26 01:34:00;;;;;;;11.45;3.88;;;;;;;;;;5030507;28;20472;-72
2023/04/26 01:36:45;;;;;;;6.05;2.92;;;;;;;;;;5034539;28;20071;-77
2023/04/26 01:39:30;;;;;;;11.10;4.82;;;;;;;;;;5045466;28;20116;-76
2023/04/26 01:42:16;;;;;;;7.63;3.47;;;;;;;;;;5042892;28;20033;-77
2023/04/26 01:45:01;;;;;;;11.45;4.10;;;;;;;;;;5043273;28;20020;-76
2023/04/26 01:47:46;;;;;;;7.70;3.42;;;;;;;;;;5044109;28;20536;-77
2023/04/26 01:50:31;;;;;;;6.43;3.10;;;;;;;;;;5026788;28;20056;-78
2023/04/26 01:53:17;;;;;;;5.60;3.50;;;;;;;;;;5043893;28;20115;-73
2023/04/26 01:56:02;;;;;;;11.75;3.30;;;;;;;;;;5026936;28;20702;-71
2023/04/26 01:58:47;;;;;;;6.60;3.05;;;;;;;;;;5026630;28;20024;-72
2023/04/26 02:01:32;;;;;;;6.22;3.50;;;;;;;;;;5045960;28;20033;-72
2023/04/26 02:04:18;;;;;;;8.07;3.30;;;;;;;;;;5022885;28;20136;-72
2023/04/26 02:07:03;;;;;;;6.13;3.40;;;;;;;;;;5040872;28;20447;-73
2023/04/26 02:09:48;;;;;;;4.47;2.72;;;;;;;;;;5048483;28;20028;-73
2023/04/26 02:12:33;;;;;;;6.93;2.50;;;;;;;;;;5024563;28;20026;-73
2023/04/26 02:15:19;;;;;;;7.90;3.38;;;;;;;;;;5026560;28;20404;-77
2023/04/26 02:18:04;;;;;;;5.53;3.30;;;;;;;;;;5040539;28;20041;-76
2023/04/26 02:20:49;;;;;;;6.00;3.00;;;;;;;;;;5027427;28;20040;-76
2023/04/26 02:23:35;;;;;;;8.23;3.33;;;;;;;;;;5029110;28;20526;-75
2023/04/26 02:26:20;;;;;;;5.82;2.75;;;;;;;;;;5028307;28;20056;-75
2023/04/26 02:29:06;;;;;;;10.45;2.75;;;;;;;;;;5041874;28;20036;-76
2023/04/26 02:31:51;;;;;;;6.30;2.85;;;;;;;;;;5029754;28;20100;-73
2023/04/26 02:34:36;;;;;;;7.43;4.20;;;;;;;;;;5030003;28;20116;-74
2023/04/26 02:37:21;;;;;;;9.30;2.80;;;;;;;;;;5043106;28;20039;-74
2023/04/26 02:40:09;;;;;;;7.20;3.42;;;;;;;;;;5044490;28;20029;-74
2023/04/26 02:42:55;;;;;;;10.02;3.75;;;;;;;;;;5045636;28;20180;-73
2023/04/26 02:45:43;;;;;;;9.10;3.60;;;;;;;;;;5026547;28;20052;-73
2023/04/26 02:48:28;;;;;;;6.88;3.20;;;;;;;;;;5028189;28;20479;-75
2023/04/26 02:51:14;;;;;;;7.57;3.38;;;;;;;;;;5026740;28;20025;-72
2023/04/26 02:54:00;;;;;;;6.35;3.38;;;;;;;;;;5043543;28;20539;-73
2023/04/26 02:56:45;;;;;;;4.85;3.03;;;;;;;;;;5042229;28;20094;-73
2023/04/26 02:59:31;;;;;;;6.47;3.50;;;;;;;;;;5044224;28;20116;-71
2023/04/26 03:02:16;;;;;;;8.70;3.70;;;;;;;;;;5037956;28;20557;-72
2023/04/26 03:05:01;;;;;;;8.07;3.45;;;;;;;;;;5043860;28;20025;-76
2023/04/26 03:07:47;;;;;;;10.02;4.00;;;;;;;;;;5023779;28;20029;-81
2023/04/26 03:10:32;;;;;;;5.10;3.25;;;;;;;;;;5027375;28;20036;-74
2023/04/26 03:13:17;;;;;;;11.00;3.75;;;;;;;;;;5046835;28;20244;-73
2023/04/26 03:16:03;;;;;;;6.18;2.90;;;;;;;;;;5025067;28;20037;-74
2023/04/26 03:18:48;;;;;;;8.50;3.38;;;;;;;;;;5026514;28;20112;-74
2023/04/26 03:21:33;;;;;;;9.57;3.55;;;;;;;;;;5038034;28;20119;-73
2023/04/26 03:24:19;;;;;;;5.75;2.60;;;;;;;;;;5043417;28;20033;-72
2023/04/26 03:27:04;;;;;;;5.90;2.40;;;;;;;;;;5034011;28;20021;-75
2023/04/26 03:29:49;;;;;;;10.25;4.18;;;;;;;;;;5034266;28;20040;-73
2023/04/26 03:32:34;;;;;;;7.78;3.70;;;;;;;;;;5031534;28;20491;-73
2023/04/26 03:35:20;;;;;;;7.95;3.28;;;;;;;;;;5040923;28;20053;-72
2023/04/26 03:38:05;;;;;;;7.97;4.22;;;;;;;;;;5045548;28;20300;-74
2023/04/26 03:40:51;;;;;;;8.98;4.68;;;;;;;;;;5040466;28;20376;-74
2023/04/26 03:43:36;;;;;;;7.97;3.50;;;;;;;;;;5041158;28;20025;-72
2023/04/26 03:46:21;;;;;;;5.43;3.45;;;;;;;;;;5037128;28;20114;-74
2023/04/26 03:49:06;;;;;;;7.07;3.67;;;;;;;;;;5044458;28;20047;-73
2023/04/26 03:51:52;;;;;;;10.82;4.22;;;;;;;;;;5044619;28;20044;-73
2023/04/26 03:54:37;;;;;;;6.90;3.95;;;;;;;;;;5031567;28;20392;-73
2023/04/26 03:57:22;;;;;;;8.55;3.60;;;;;;;;;;5032739;28;20138;-73
2023/04/26 04:00:12;;;;;;;9.75;3.95;;;;;;;;;;5044687;28;20075;-77
2023/04/26 04:02:57;;;;;;;10.63;4.72;;;;;;;;;;5047523;28;20021;-77
2023/04/26 04:05:43;;;;;;;11.15;5.43;;;;;;;;;;5046332;28;20029;-77
2023/04/26 04:08:28;;;;;;;10.55;4.32;;;;;;;;;;5030867;28;20029;-76
2023/04/26 04:11:14;;;;;;;10.32;5.20;;;;;;;;;;5034644;28;20063;-76
2023/04/26 04:13:59;;;;;;;12.68;5.70;;;;;;;;;;5046783;28;20025;-75
2023/04/26 04:16:45;;;;;;;9.57;5.15;;;;;;;;;;5037427;28;20335;-75
2023/04/26 04:19:31;;;;;;;9.98;5.55;;;;;;;;;;5032130;28;20034;-75
2023/04/26 04:22:16;;;;;;;11.05;4.75;;;;;;;;;;5034135;28;20475;-76
2023/04/26 04:25:03;;;;;;;12.40;4.63;;;;;;;;;;5043621;28;20021;-75
2023/04/26 04:27:49;;;;;;;12.15;5.30;;;;;;;;;;5028982;28;20068;-75
2023/04/26 04:30:34;;;;;;;12.35;5.53;;;;;;;;;;5035112;28;20033;-76
2023/04/26 04:33:19;;;;;;;8.10;4.63;;;;;;;;;;5041171;28;20041;-74
2023/04/26 04:36:05;;;;;;;10.93;5.63;;;;;;;;;;5047205;28;20032;-74
2023/04/26 04:38:52;;;;;;;9.85;5.75;;;;;;;;;;5041957;28;20030;-75
2023/04/26 04:41:37;;;;;;;9.18;5.35;;;;;;;;;;5051328;28;20032;-75
2023/04/26 04:44:23;;;;;;;11.15;5.80;;;;;;;;;;5035568;28;20040;-80
2023/04/26 04:47:08;;;;;;;9.75;5.03;;;;;;;;;;5049227;28;20017;-76
2023/04/26 04:49:53;;;;;;;12.13;5.38;;;;;;;;;;5036042;28;20128;-75
2023/04/26 04:52:38;;;;;;;11.52;6.00;;;;;;;;;;5045217;28;20044;-76
2023/04/26 04:55:24;;;;;;;17.90;5.40;;;;;;;;;;5043051;28;20547;-70
2023/04/26 04:58:09;;;;;;;14.02;5.88;;;;;;;;;;5046769;28;20175;-76
2023/04/26 05:00:57;;;;;;;15.70;5.80;;;;;;;;;;5028841;28;20499;-72
2023/04/26 05:03:42;;;;;;;12.05;6.55;;;;;;;;;;5045360;28;20032;-73
2023/04/26 05:06:28;;;;;;;13.07;6.50;;;;;;;;;;5046130;28;20104;-71
2023/04/26 05:09:13;;;;;;;13.18;6.22;;;;;;;;;;5032718;28;20078;-72
2023/04/26 05:11:58;;;;;;;12.48;6.03;;;;;;;;;;5040124;28;20043;-72
2023/04/26 05:14:44;;;;;;;10.88;5.72;;;;;;;;;;5031789;28;20029;-83
2023/04/26 05:17:31;;;;;;;11.85;5.88;;;;;;;;;;5046433;28;20033;-74
2023/04/26 05:20:16;;;;;;;12.73;6.75;;;;;;;;;;5047701;28;20025;-74
2023/04/26 05:23:01;;;;;;;15.50;6.07;;;;;;;;;;5047927;28;20025;-73
2023/04/26 05:25:46;;;;;;;13.23;6.82;;;;;;;;;;5028972;28;20128;-72
2023/04/26 05:28:33;;;;;;;12.73;5.85;;;;;;;;;;5043582;28;20109;-72
2023/04/26 05:31:18;;;;;;;11.52;6.22;;;;;;;;;;5047673;28;20024;-75
2023/04/26 05:34:03;;;;;;;11.75;5.80;;;;;;;;;;5049217;28;20020;-76
2023/04/26 05:36:48;;;;;;;11.82;5.43;;;;;;;;;;5020542;28;20996;-74
2023/04/26 05:39:34;;;;;;;12.70;6.88;;;;;;;;;;5042388;28;20021;-72
2023/04/26 05:42:19;;;;;;;10.80;5.85;;;;;;;;;;5047732;28;20089;-71
2023/04/26 05:45:04;;;;;;;13.02;5.82;;;;;;;;;;5031701;28;20388;-70
2023/04/26 05:47:50;;;;;;;15.15;6.75;;;;;;;;;;5033845;28;20021;-72
2023/04/26 05:50:35;;;;;;;10.25;5.22;;;;;;;;;;5027910;28;20029;-71
2023/04/26 05:53:21;;;;;;;9.35;5.50;;;;;;;;;;5053429;28;20351;-72
2023/04/26 05:56:06;;;;;;;10.60;5.32;;;;;;;;;;5044375;28;20037;-75
2023/04/26 05:58:52;;;;;;;8.75;4.80;;;;;;;;;;5025537;28;20057;-72
2023/04/26 06:01:37;;;;;;;9.75;5.50;;;;;;;;;;5047795;28;20047;-73
2023/04/26 06:04:23;;;;;;;17.13;6.47;;;;;;;;;;5046434;28;20021;-73
2023/04/26 06:07:08;;;;;;;15.07;6.40;;;;;;;;;;5034363;28;20024;-73
2023/04/26 06:09:53;;;;;;;10.38;5.85;;;;;;;;;;5033189;28;20028;-71
2023/04/26 06:12:39;;;;;;;12.52;7.00;;;;;;;;;;5055710;28;20027;-78
2023/04/26 06:15:26;;;;;;;13.00;6.93;;;;;;;;;;5029194;28;20036;-76
2023/04/26 06:18:11;;;;;;;13.13;5.95;;;;;;;;;;5043993;28;20502;-77
2023/04/26 06:20:56;;;;;;;12.48;5.80;;;;;;;;;;5039835;28;20036;-82
2023/04/26 06:23:42;;;;;;;10.80;6.38;;;;;;;;;;5043941;28;20025;-78
2023/04/26 06:26:27;;;;;;;10.70;5.68;;;;;;;;;;5044771;28;20021;-78
2023/04/26 06:29:12;;;;;;;12.63;6.28;;;;;;;;;;5045261;28;20025;-70
2023/04/26 06:31:57;;;;;;;13.23;6.47;;;;;;;;;;5045886;28;20106;-69
2023/04/26 06:34:44;;;;;;;15.57;7.13;;;;;;;;;;5044409;28;20710;-70
2023/04/26 06:37:29;;;;;;;10.35;5.97;;;;;;;;;;5043759;28;20033;-68
2023/04/26 06:40:14;;;;;;;10.98;6.63;;;;;;;;;;5047143;28;20040;-69
2023/04/26 06:43:00;;;;;;;13.43;7.45;;;;;;;;;;5045926;28;20020;-70
2023/04/26 06:45:45;;;;;;;10.80;6.82;;;;;;;;;;5047920;28;20111;-67
2023/04/26 06:48:30;;;;;;;12.05;7.05;;;;;;;;;;5045955;28;20029;-69
2023/04/26 06:51:15;;;;;;;14.00;6.50;;;;;;;;;;5032512;28;20017;-70
2023/04/26 06:54:01;;;;;;;11.43;6.85;;;;;;;;;;5040454;28;20408;-69
2023/04/26 06:56:46;;;;;;;11.73;6.22;;;;;;;;;;5034534;28;20095;-71
2023/04/26 06:59:31;;;;;;;12.13;6.72;;;;;;;;;;5049166;28;20029;-68
2023/04/26 07:02:16;;;;;;;11.43;5.78;;;;;;;;;;5049591;28;20458;-72
2023/04/26 07:05:01;;;;;;;8.88;4.80;;;;;;;;;;5051921;28;20017;-75
2023/04/26 07:07:48;;;;;;;9.65;3.97;;;;;;;;;;5035776;28;20073;-72
2023/04/26 07:10:33;;;;;;;8.48;4.07;;;;;;;;;;5049292;28;20072;-74
2023/04/26 07:13:18;;;;;;;10.00;3.33;;;;;;;;;;5043932;28;20036;-70
2023/04/26 07:16:04;;;;;;;11.10;4.88;;;;;;;;;;5034831;28;20600;-69
2023/04/26 07:18:51;;;;;;;11.80;4.45;;;;;;;;;;5047044;28;20055;-71
2023/04/26 07:21:36;;;;;;;9.93;4.95;;;;;;;;;;5036182;28;20025;-73
2023/04/26 07:24:22;;;;;;;8.32;4.60;;;;;;;;;;5050460;28;20025;-69
2023/04/26 07:27:07;;;;;;;11.05;5.45;;;;;;;;;;5051387;28;20115;-78
2023/04/26 07:29:52;;;;;;;9.57;5.07;;;;;;;;;;5048421;28;20468;-77
2023/04/26 07:32:38;;;;;;;10.48;5.82;;;;;;;;;;5047804;28;20468;-76
2023/04/26 07:35:23;;;;;;;9.77;4.90;;;;;;;;;;5048342;28;20032;-74
2023/04/26 07:38:09;;;;;;;10.05;5.78;;;;;;;;;;5052060;28;20043;-76
2023/04/26 07:40:54;;;;;;;7.65;4.28;;;;;;;;;;5049888;28;20033;-75
2023/04/26 07:43:40;;;;;;;15.27;4.85;;;;;;;;;;5049855;28;20025;-74
2023/04/26 07:46:25;;;;;;;8.73;4.70;;;;;;;;;;5033956;28;20036;-75
2023/04/26 07:49:10;;;;;;;11.93;4.63;;;;;;;;;;5048428;28;20032;-75
2023/04/26 07:51:57;;;;;;;8.10;4.10;;;;;;;;;;5049410;28;20056;-80
2023/04/26 07:54:44;;;;;;;9.38;4.13;;;;;;;;;;5050792;28;20043;-80
2023/04/26 07:57:29;;;;;;;8.35;4.30;;;;;;;;;;5032733;28;20036;-78
2023/04/26 08:00:17;;;;;;;9.88;4.05;;;;;;;;;;5038615;28;20220;-75
2023/04/26 08:03:03;;;;;;;11.82;5.97;;;;;;;;;;5048537;28;20029;-73
2023/04/26 08:05:48;;;;;;;8.15;3.95;;;;;;;;;;5042725;28;20483;-76
2023/04/26 08:08:39;;;;;;;11.18;4.78;;;;;;;;;;5045811;28;20029;-75
2023/04/26 08:11:24;;;;;;;9.95;5.07;;;;;;;;;;5049073;28;20044;-75
2023/04/26 08:14:10;;;;;;;13.68;5.00;;;;;;;;;;5047140;28;20041;-74
2023/04/26 08:16:55;;;;;;;11.73;5.32;;;;;;;;;;5047936;28;20033;-75
2023/04/26 08:19:40;;;;;;;10.95;4.97;;;;;;;;;;5048852;28;20021;-70
2023/04/26 08:22:26;;;;;;;8.63;4.40;;;;;;;;;;5049328;28;20040;-76
2023/04/26 08:25:11;;;;;;;8.73;3.83;;;;;;;;;;5047374;28;20106;-80
2023/04/26 08:27:57;;;;;;;9.75;4.25;;;;;;;;;;5034208;28;20032;-77
2023/04/26 08:30:42;;;;;;;13.60;5.13;;;;;;;;;;5048477;28;20099;-77
2023/04/26 08:33:27;;;;;;;10.60;4.30;;;;;;;;;;5043402;28;20037;-75
2023/04/26 08:36:13;;;;;;;11.35;4.63;;;;;;;;;;5046002;28;20491;-73
2023/04/26 08:38:58;;;;;;;8.63;4.25;;;;;;;;;;5047571;28;20408;-77
2023/04/26 08:41:47;;;;;;;6.88;4.50;;;;;;;;;;5048004;28;20029;-74
2023/04/26 08:44:34;;;;;;;8.10;4.25;;;;;;;;;;5039998;28;20045;-74
2023/04/26 08:47:33;;;;;;;13.40;4.70;;;;;;;;;;5048085;28;20036;-70
2023/04/26 08:50:20;;;;;;;6.30;3.60;;;;;;;;;;5044919;28;20025;-72
2023/04/26 08:53:05;;;;;;;9.93;4.05;;;;;;;;;;5042615;28;20187;-78
2023/04/26 08:55:51;;;;;;;10.05;4.38;;;;;;;;;;5047540;28;20040;-75
2023/04/26 08:58:37;;;;;;;8.18;3.95;;;;;;;;;;5043232;28;20051;-66
2023/04/26 09:01:23;;;;;;;9.07;4.28;;;;;;;;;;5032539;28;20430;-73
2023/04/26 09:04:08;;;;;;;11.20;4.13;;;;;;;;;;5047101;28;20057;-70
2023/04/26 09:06:57;;;;;;;8.85;4.90;;;;;;;;;;5049102;28;20044;-69
2023/04/26 09:09:44;;;;;;;6.93;4.43;;;;;;;;;;5045644;28;20503;-71
2023/04/26 09:12:30;;;;;;;15.02;4.00;;;;;;;;;;5030894;28;20434;-73
2023/04/26 09:15:15;;;;;;;8.15;5.07;;;;;;;;;;5032935;28;20104;-69
2023/04/26 09:18:21;;;;;;;10.02;3.92;;;;;;;;;;5047620;28;20489;-71
2023/04/26 09:21:07;;;;;;;9.52;3.70;;;;;;;;;;5036085;28;20017;-69
2023/04/26 09:23:57;;;;;;;11.02;4.82;;;;;;;;;;5045526;28;20029;-72
2023/04/26 09:26:42;;;;;;;7.60;3.72;;;;;;;;;;5046856;28;20051;-70
2023/04/26 09:29:28;;;;;;;10.00;4.45;;;;;;;;;;5046209;28;20029;-70
2023/04/26 09:32:13;;;;;;;9.82;4.05;;;;;;;;;;5042751;28;20025;-69
2023/04/26 09:34:58;;;;;;;8.88;4.53;;;;;;;;;;5043545;28;20021;-74
2023/04/26 09:37:50;;;;;;;14.02;4.70;;;;;;;;;;5053200;28;20061;-73
2023/04/26 09:40:37;;;;;;;14.63;4.28;;;;;;;;;;5045542;28;20052;-73
2023/04/26 09:43:22;;;;;;;10.80;4.63;;;;;;;;;;5045215;28;20100;-73
2023/04/26 09:46:07;;;;;;;12.40;4.40;;;;;;;;;;5033494;28;20106;-75
2023/04/26 09:49:02;;;;;;;6.55;3.67;;;;;;;;;;5043782;28;20039;-75
2023/04/26 09:52:03;;;;;;;13.63;4.93;;;;;;;;;;5044993;28;20536;-70
2023/04/26 09:54:53;;;;;;;16.67;4.65;;;;;;;;;;5032693;28;20025;-78
2023/04/26 09:57:42;;;;;;;13.80;4.65;;;;;;;;;;5043300;28;20032;-78
2023/04/26 10:00:28;;;;;;;10.18;4.40;;;;;;;;;;5032201;28;20504;-78
2023/04/26 10:03:13;;;;;;;11.38;4.13;;;;;;;;;;5031370;28;20496;-76
2023/04/26 10:05:59;;;;;;;7.93;3.83;;;;;;;;;;5043684;28;20111;-81
2023/04/26 10:08:44;;;;;;;9.55;4.70;;;;;;;;;;5038324;28;20013;-77
2023/04/26 10:11:29;;;;;;;9.20;3.53;;;;;;;;;;5028489;28;20029;-67
2023/04/26 10:14:15;;;;;;;8.82;3.95;;;;;;;;;;5044760;28;20515;-68
2023/04/26 10:17:02;;;;;;;9.52;4.53;;;;;;;;;;5046944;28;20041;-66
2023/04/26 10:19:51;;;;;;;8.73;4.03;;;;;;;;;;5041425;28;20025;-67
2023/04/26 10:22:39;;;;;;;14.13;4.90;;;;;;;;;;5054009;28;20145;-67
2023/04/26 10:25:38;;;;;;;8.57;4.77;;;;;;;;;;5044428;28;20029;-68
2023/04/26 10:28:46;;;;;;;10.25;3.90;;;;;;;;;;5045896;28;20118;-74
2023/04/26 10:31:50;;;;;;;10.07;4.95;;;;;;;;;;5051638;28;20380;-70
2023/04/26 10:34:35;;;;;;;10.05;4.57;;;;;;;;;;5043505;28;20420;-69
2023/04/26 10:37:21;;;;;;;10.77;4.43;;;;;;;;;;5043214;28;20036;-68
2023/04/26 10:40:22;;;;;;;9.43;4.15;;;;;;;;;;5035151;28;20201;-70
2023/04/26 10:43:10;;;;;;;7.88;3.70;;;;;;;;;;5031400;28;20104;-70
2023/04/26 10:45:56;;;;;;;9.07;3.80;;;;;;;;;;5044741;28;20464;-69
2023/04/26 10:48:41;;;;;;;8.73;4.70;;;;;;;;;;5046269;28;20040;-74
2023/04/26 10:51:26;;;;;;;11.32;4.32;;;;;;;;;;5046454;28;20025;-74
2023/04/26 10:54:12;;;;;;;9.70;4.45;;;;;;;;;;5045806;28;20056;-73
2023/04/26 10:56:57;;;;;;;7.97;4.68;;;;;;;;;;5047660;28;20086;-74
2023/04/26 11:00:04;;;;;;;10.77;4.28;;;;;;;;;;5043428;28;20032;-73
2023/04/26 11:02:56;;;;;;;8.25;3.67;;;;;;;;;;5044896;28;20021;-73
2023/04/26 11:05:52;;;;;;;8.25;3.15;;;;;;;;;;5036952;28;20028;-71
2023/04/26 11:08:37;;;;;;;7.10;3.47;;;;;;;;;;5059539;28;20043;-70
2023/04/26 11:11:25;;;;;;;9.07;4.22;;;;;;;;;;5042104;28;20547;-71
2023/04/26 11:14:10;;;;;;;10.88;4.50;;;;;;;;;;5047670;28;20033;-72
2023/04/26 11:16:56;;;;;;;11.60;4.28;;;;;;;;;;5025304;28;20094;-74
2023/04/26 11:19:41;;;;;;;9.50;4.07;;;;;;;;;;5042951;28;20036;-74
2023/04/26 11:22:27;;;;;;;7.30;4.03;;;;;;;;;;5028733;28;20773;-69
2023/04/26 11:25:12;;;;;;;7.50;2.95;;;;;;;;;;5044395;28;20028;-73
2023/04/26 11:27:59;;;;;;;7.72;3.72;;;;;;;;;;5044455;28;20021;-72
2023/04/26 11:30:44;;;;;;;12.77;3.85;;;;;;;;;;5041157;28;20038;-74
2023/04/26 11:33:29;;;;;;;8.93;3.45;;;;;;;;;;5030271;28;20036;-73
2023/04/26 11:36:15;;;;;;;8.60;3.60;;;;;;;;;;5044046;28;20044;-73
2023/04/26 11:39:01;;;;;;;8.65;3.72;;;;;;;;;;5044594;28;20029;-71
2023/04/26 11:41:46;;;;;;;8.25;4.25;;;;;;;;;;5046093;28;20021;-73
2023/04/26 11:44:32;;;;;;;11.00;3.97;;;;;;;;;;5054042;28;20090;-76
2023/04/26 11:47:18;;;;;;;11.45;4.00;;;;;;;;;;5047704;28;20442;-76
2023/04/26 11:50:03;;;;;;;6.35;3.30;;;;;;;;;;5045805;28;20040;-78
2023/04/26 11:52:49;;;;;;;7.22;3.72;;;;;;;;;;5057062;28;20045;-79
2023/04/26 11:55:34;;;;;;;9.57;3.70;;;;;;;;;;5030392;28;20036;-75
2023/04/26 11:58:20;;;;;;;8.30;3.58;;;;;;;;;;5028138;28;20523;-76
2023/04/26 12:01:05;;;;;;;10.50;3.55;;;;;;;;;;5031964;28;20105;-69
2023/04/26 12:03:51;;;;;;;9.20;3.75;;;;;;;;;;5047155;28;20025;-73
2023/04/26 12:06:40;;;;;;;5.82;3.28;;;;;;;;;;5034100;28;20053;-75
2023/04/26 12:09:29;;;;;;;9.15;3.88;;;;;;;;;;5051731;28;20376;-75
2023/04/26 12:12:15;;;;;;;6.57;3.50;;;;;;;;;;5033445;28;20021;-75
2023/04/26 12:15:00;;;;;;;6.32;3.33;;;;;;;;;;5033590;28;20094;-74
2023/04/26 12:17:55;;;;;;;8.60;3.15;;;;;;;;;;5035332;28;20033;-75
2023/04/26 12:20:41;;;;;;;4.82;3.28;;;;;;;;;;5033023;28;20055;-69
2023/04/26 12:23:34;;;;;;;10.68;4.22;;;;;;;;;;5044348;28;20112;-72
2023/04/26 12:26:20;;;;;;;9.85;4.05;;;;;;;;;;5057393;28;20029;-72
2023/04/26 12:29:06;;;;;;;8.30;4.35;;;;;;;;;;5047406;28;20476;-70
2023/04/26 12:31:51;;;;;;;10.13;3.60;;;;;;;;;;5048310;28;20140;-71
2023/04/26 12:34:36;;;;;;;10.10;3.50;;;;;;;;;;5043382;28;20032;-70
2023/04/26 12:37:21;;;;;;;5.25;3.35;;;;;;;;;;5048888;28;20114;-73
2023/04/26 12:40:08;;;;;;;6.88;2.83;;;;;;;;;;5047037;28;20036;-75
2023/04/26 12:42:54;;;;;;;5.72;2.83;;;;;;;;;;5033198;28;20033;-75
2023/04/26 12:45:40;;;;;;;7.50;3.53;;;;;;;;;;5047646;28;20059;-74
2023/04/26 12:48:25;;;;;;;11.02;4.53;;;;;;;;;;5051439;28;20563;-75
2023/04/26 12:51:10;;;;;;;8.15;3.05;;;;;;;;;;5032952;28;20070;-76
2023/04/26 12:53:55;;;;;;;7.43;3.53;;;;;;;;;;5040546;28;20444;-78
2023/04/26 12:56:43;;;;;;;9.45;3.67;;;;;;;;;;5046390;28;20114;-73
2023/04/26 12:59:28;;;;;;;7.07;3.53;;;;;;;;;;5044252;28;20021;-72
2023/04/26 13:02:13;;;;;;;7.72;3.92;;;;;;;;;;5046011;28;20594;-73
2023/04/26 13:05:00;;;;;;;7.10;3.42;;;;;;;;;;5045619;28;20020;-72
2023/04/26 13:07:45;;;;;;;6.07;3.60;;;;;;;;;;5041491;28;20024;-72
2023/04/26 13:10:31;;;;;;;9.32;4.07;;;;;;;;;;5032982;28;21437;-72
2023/04/26 13:13:17;;;;;;;6.18;3.72;;;;;;;;;;5046552;28;20125;-78
2023/04/26 13:16:02;;;;;;;10.13;3.42;;;;;;;;;;5028394;28;20108;-73
2023/04/26 13:18:47;;;;;;;8.50;4.05;;;;;;;;;;5048415;28;20031;-72
2023/04/26 13:21:33;;;;;;;10.27;3.60;;;;;;;;;;5053270;28;20484;-73
2023/04/26 13:24:18;;;;;;;7.18;3.05;;;;;;;;;;5045242;28;20422;-73
2023/04/26 13:27:03;;;;;;;6.55;3.70;;;;;;;;;;5040667;28;20025;-72
2023/04/26 13:29:50;;;;;;;7.78;3.78;;;;;;;;;;5044480;28;20020;-72
2023/04/26 13:32:35;;;;;;;11.13;3.85;;;;;;;;;;5030582;28;20029;-75
2023/04/26 13:35:20;;;;;;;9.40;3.15;;;;;;;;;;5043858;28;20459;-84
2023/04/26 13:38:06;;;;;;;5.28;2.88;;;;;;;;;;5048262;28;20479;-83
2023/04/26 13:40:52;;;;;;;9.63;3.42;;;;;;;;;;5049647;28;20452;-78
2023/04/26 13:43:37;;;;;;;6.80;2.95;;;;;;;;;;5052108;28;20025;-82
2023/04/26 13:46:23;;;;;;;8.75;2.88;;;;;;;;;;5032553;28;20028;-84
2023/04/26 13:49:09;;;;;;;6.03;3.03;;;;;;;;;;5048570;28;20059;-75
2023/04/26 13:51:54;;;;;;;6.60;2.83;;;;;;;;;;5049397;28;20072;-71
2023/04/26 13:54:40;;;;;;;7.50;2.72;;;;;;;;;;5034305;28;20035;-79
2023/04/26 13:57:26;;;;;;;8.20;3.65;;;;;;;;;;5030135;28;20705;-77
2023/04/26 14:00:12;;;;;;;9.73;2.88;;;;;;;;;;5044592;28;20021;-79
2023/04/26 14:02:58;;;;;;;3.97;2.08;;;;;;;;;;5030111;28;20559;-83
2023/04/26 14:05:43;;;;;;;7.25;3.10;;;;;;;;;;5033092;28;20128;-82
2023/04/26 14:08:28;;;;;;;7.22;3.35;;;;;;;;;;5039876;28;20112;-73
2023/04/26 14:11:14;;;;;;;6.00;2.75;;;;;;;;;;5040927;28;20031;-75
2023/04/26 14:13:59;;;;;;;5.95;2.80;;;;;;;;;;5045586;28;20017;-75
2023/04/26 14:16:44;;;;;;;7.07;2.90;;;;;;;;;;5044478;28;20037;-76
2023/04/26 14:19:30;;;;;;;7.57;2.95;;;;;;;;;;5045143;28;20021;-75
2023/04/26 14:22:16;;;;;;;9.05;3.38;;;;;;;;;;5026885;28;20535;-74
2023/04/26 14:25:02;;;;;;;7.22;3.10;;;;;;;;;;5058168;28;20016;-73
2023/04/26 14:27:47;;;;;;;11.82;2.90;;;;;;;;;;5044752;28;20100;-71
2023/04/26 14:30:33;;;;;;;14.65;3.30;;;;;;;;;;5030214;28;20056;-73
2023/04/26 14:33:18;;;;;;;5.25;2.53;;;;;;;;;;5045659;28;20451;-73
2023/04/26 14:36:03;;;;;;;6.18;3.00;;;;;;;;;;5045562;28;20079;-74
2023/04/26 14:38:49;;;;;;;10.60;4.45;;;;;;;;;;5046294;28;20108;-71
2023/04/26 14:41:34;;;;;;;7.68;3.75;;;;;;;;;;5045350;28;20527;-75
2023/04/26 14:44:21;;;;;;;8.52;4.00;;;;;;;;;;5050138;28;20025;-73
2023/04/26 14:47:06;;;;;;;8.65;3.45;;;;;;;;;;5042001;28;20025;-70
2023/04/26 14:49:52;;;;;;;8.25;3.80;;;;;;;;;;5045630;28;20110;-70
2023/04/26 14:52:37;;;;;;;8.32;3.95;;;;;;;;;;4999134;28;1089996;-71
2023/04/26 14:55:22;;;;;;;7.13;3.53;;;;;;;;;;5050156;28;20097;-71
2023/04/26 14:58:07;;;;;;;5.18;3.28;;;;;;;;;;5055601;28;20077;-72
2023/04/26 15:00:53;;;;;;;6.82;2.92;;;;;;;;;;5042465;28;20380;-72
2023/04/26 15:03:38;;;;;;;5.50;2.95;;;;;;;;;;5047163;28;20028;-73
2023/04/26 15:06:23;;;;;;;7.88;3.95;;;;;;;;;;5045398;28;20025;-70
2023/04/26 15:09:09;;;;;;;9.75;3.67;;;;;;;;;;5033600;28;20021;-70
2023/04/26 15:11:55;;;;;;;9.50;3.70;;;;;;;;;;5047940;28;20052;-67
2023/04/26 15:14:40;;;;;;;10.93;3.75;;;;;;;;;;5048637;28;20035;-68
2023/04/26 15:17:26;;;;;;;6.82;3.42;;;;;;;;;;5045748;28;20044;-68
2023/04/26 15:20:11;;;;;;;6.90;2.58;;;;;;;;;;5047030;28;20058;-68
2023/04/26 15:22:56;;;;;;;11.93;4.28;;;;;;;;;;5046826;28;20029;-72
2023/04/26 15:25:41;;;;;;;6.18;3.03;;;;;;;;;;5048301;28;20021;-73
2023/04/26 15:28:27;;;;;;;5.90;3.55;;;;;;;;;;5057841;28;20243;-72
2023/04/26 15:31:12;;;;;;;8.63;3.22;;;;;;;;;;5047748;28;20029;-71
2023/04/26 15:33:57;;;;;;;6.60;3.22;;;;;;;;;;5051187;28;20036;-72
2023/04/26 15:36:42;;;;;;;10.07;3.70;;;;;;;;;;5043110;28;20041;-72
2023/04/26 15:39:28;;;;;;;6.25;2.90;;;;;;;;;;5042872;28;20113;-75
2023/04/26 15:42:13;;;;;;;9.88;3.65;;;;;;;;;;5032292;28;20021;-70
2023/04/26 15:44:58;;;;;;;5.93;3.47;;;;;;;;;;5044946;28;20025;-73
2023/04/26 15:47:43;;;;;;;8.50;4.05;;;;;;;;;;5044555;28;20192;-70
2023/04/26 15:50:29;;;;;;;9.18;3.85;;;;;;;;;;5045687;28;20033;-71
2023/04/26 15:53:14;;;;;;;6.07;3.22;;;;;;;;;;5033542;28;20057;-72
2023/04/26 15:56:00;;;;;;;7.07;3.00;;;;;;;;;;5047906;28;20039;-71
2023/04/26 15:58:45;;;;;;;7.40;3.45;;;;;;;;;;5048088;28;20471;-74
2023/04/26 16:01:31;;;;;;;6.70;3.33;;;;;;;;;;5053031;28;20403;-72
2023/04/26 16:04:16;;;;;;;7.10;3.35;;;;;;;;;;5046708;28;20112;-73
2023/04/26 16:07:01;;;;;;;7.22;3.58;;;;;;;;;;5048481;28;20079;-72
2023/04/26 16:09:47;;;;;;;8.77;3.22;;;;;;;;;;5048562;28;20033;-74
2023/04/26 16:12:32;;;;;;;7.07;3.10;;;;;;;;;;5044899;28;20307;-76
2023/04/26 16:15:18;;;;;;;9.57;3.50;;;;;;;;;;5048712;28;20043;-73
2023/04/26 16:18:03;;;;;;;11.10;3.30;;;;;;;;;;5034242;28;20029;-72
2023/04/26 16:20:48;;;;;;;7.82;3.70;;;;;;;;;;5046560;28;20021;-72
2023/04/26 16:23:34;;;;;;;6.00;3.00;;;;;;;;;;5048651;28;20029;-72
2023/04/26 16:26:20;;;;;;;9.35;3.65;;;;;;;;;;5047725;28;20171;-74
2023/04/26 16:29:05;;;;;;;6.20;2.80;;;;;;;;;;5047425;28;20040;-73